sensor_id;sensor_type;location;lat;lon;timestamp;P1;durP1;ratioP1;P2;durP2;ratioP2
14394;SDS011;7282;49.204;10.652;2023-05-17T00:00:02;1.80;;;1.40;;
14394;SDS011;7282;49.204;10.652;2023-05-17T00:02:31;3.40;;;1.60;;
14394;SDS011;7282;49.204;10.652;2023-05-17T00:04:57;3.43;;;1.70;;
14394;SDS011;7282;49.204;10.652;2023-05-17T00:07:24;2.90;;;2.00;;
14394;SDS011;7282;49.204;10.652;2023-05-17T00:09:51;3.07;;;2.00;;
14394;SDS011;7282;49.204;10.652;2023-05-17T00:12:17;2.00;;;1.73;;
14394;SDS011;7282;49.204;10.652;2023-05-17T00:14:44;3.07;;;1.80;;
14394;SDS011;7282;49.204;10.652;2023-05-17T00:17:11;4.13;;;1.67;;
14394;SDS011;7282;49.204;10.652;2023-05-17T00:19:37;3.23;;;1.50;;
14394;SDS011;7282;49.204;10.652;2023-05-17T00:22:04;3.47;;;1.80;;
14394;SDS011;7282;49.204;10.652;2023-05-17T00:24:31;2.03;;;1.47;;
14394;SDS011;7282;49.204;10.652;2023-05-17T00:26:57;3.43;;;1.87;;
14394;SDS011;7282;49.204;10.652;2023-05-17T00:29:24;2.90;;;1.90;;
14394;SDS011;7282;49.204;10.652;2023-05-17T00:31:51;4.33;;;2.00;;
14394;SDS011;7282;49.204;10.652;2023-05-17T00:34:17;4.53;;;2.00;;
14394;SDS011;7282;49.204;10.652;2023-05-17T00:36:44;4.47;;;1.87;;
14394;SDS011;7282;49.204;10.652;2023-05-17T00:39:11;2.80;;;1.77;;
14394;SDS011;7282;49.204;10.652;2023-05-17T00:41:37;4.03;;;1.70;;
14394;SDS011;7282;49.204;10.652;2023-05-17T00:44:04;2.90;;;1.80;;
14394;SDS011;7282;49.204;10.652;2023-05-17T00:46:31;4.47;;;2.10;;
14394;SDS011;7282;49.204;10.652;2023-05-17T00:48:58;2.63;;;1.87;;
14394;SDS011;7282;49.204;10.652;2023-05-17T00:51:25;3.77;;;1.83;;
14394;SDS011;7282;49.204;10.652;2023-05-17T00:53:52;4.10;;;2.40;;
14394;SDS011;7282;49.204;10.652;2023-05-17T00:56:18;2.40;;;1.60;;
14394;SDS011;7282;49.204;10.652;2023-05-17T00:58:45;2.90;;;1.70;;
14394;SDS011;7282;49.204;10.652;2023-05-17T01:01:12;3.20;;;1.83;;
14394;SDS011;7282;49.204;10.652;2023-05-17T01:03:39;2.63;;;2.00;;
14394;SDS011;7282;49.204;10.652;2023-05-17T01:06:05;3.07;;;1.83;;
14394;SDS011;7282;49.204;10.652;2023-05-17T01:08:32;3.03;;;1.93;;
14394;SDS011;7282;49.204;10.652;2023-05-17T01:13:40;2.20;;;1.70;;
14394;SDS011;7282;49.204;10.652;2023-05-17T01:16:18;3.17;;;1.90;;
14394;SDS011;7282;49.204;10.652;2023-05-17T01:18:52;3.37;;;2.13;;
14394;SDS011;7282;49.204;10.652;2023-05-17T01:22:03;2.60;;;1.80;;
14394;SDS011;7282;49.204;10.652;2023-05-17T01:23:58;2.63;;;1.70;;
14394;SDS011;7282;49.204;10.652;2023-05-17T01:26:30;3.90;;;2.10;;
14394;SDS011;7282;49.204;10.652;2023-05-17T01:28:52;2.73;;;1.90;;
14394;SDS011;7282;49.204;10.652;2023-05-17T01:31:17;3.87;;;2.10;;
14394;SDS011;7282;49.204;10.652;2023-05-17T01:33:43;4.67;;;1.93;;
14394;SDS011;7282;49.204;10.652;2023-05-17T01:36:10;2.80;;;1.67;;
14394;SDS011;7282;49.204;10.652;2023-05-17T01:38:37;2.40;;;1.93;;
14394;SDS011;7282;49.204;10.652;2023-05-17T01:41:05;3.50;;;2.00;;
14394;SDS011;7282;49.204;10.652;2023-05-17T01:43:49;3.33;;;1.90;;
14394;SDS011;7282;49.204;10.652;2023-05-17T01:46:15;2.47;;;1.80;;
14394;SDS011;7282;49.204;10.652;2023-05-17T01:48:48;4.23;;;1.80;;
14394;SDS011;7282;49.204;10.652;2023-05-17T01:51:14;3.23;;;1.80;;
14394;SDS011;7282;49.204;10.652;2023-05-17T01:53:45;3.63;;;1.90;;
14394;SDS011;7282;49.204;10.652;2023-05-17T01:56:14;3.00;;;2.10;;
14394;SDS011;7282;49.204;10.652;2023-05-17T01:58:44;3.03;;;1.73;;
14394;SDS011;7282;49.204;10.652;2023-05-17T02:01:12;3.73;;;1.80;;
14394;SDS011;7282;49.204;10.652;2023-05-17T02:03:39;3.07;;;1.80;;
14394;SDS011;7282;49.204;10.652;2023-05-17T02:06:05;2.10;;;1.70;;
14394;SDS011;7282;49.204;10.652;2023-05-17T02:08:32;2.87;;;2.20;;
14394;SDS011;7282;49.204;10.652;2023-05-17T02:10:59;6.83;;;1.93;;
14394;SDS011;7282;49.204;10.652;2023-05-17T02:13:25;4.73;;;2.07;;
14394;SDS011;7282;49.204;10.652;2023-05-17T02:15:52;3.77;;;2.10;;
14394;SDS011;7282;49.204;10.652;2023-05-17T02:18:19;2.30;;;1.70;;
14394;SDS011;7282;49.204;10.652;2023-05-17T02:20:46;3.17;;;1.97;;
14394;SDS011;7282;49.204;10.652;2023-05-17T02:23:13;3.50;;;1.93;;
14394;SDS011;7282;49.204;10.652;2023-05-17T02:25:40;2.70;;;2.10;;
14394;SDS011;7282;49.204;10.652;2023-05-17T02:28:06;2.87;;;1.90;;
14394;SDS011;7282;49.204;10.652;2023-05-17T02:30:33;5.00;;;1.90;;
14394;SDS011;7282;49.204;10.652;2023-05-17T02:33:00;2.23;;;1.90;;
14394;SDS011;7282;49.204;10.652;2023-05-17T02:35:26;2.33;;;2.10;;
14394;SDS011;7282;49.204;10.652;2023-05-17T02:37:58;4.43;;;1.90;;
14394;SDS011;7282;49.204;10.652;2023-05-17T02:40:22;2.00;;;1.80;;
14394;SDS011;7282;49.204;10.652;2023-05-17T02:42:48;3.43;;;2.10;;
14394;SDS011;7282;49.204;10.652;2023-05-17T02:45:15;4.20;;;2.57;;
14394;SDS011;7282;49.204;10.652;2023-05-17T02:47:42;4.87;;;2.30;;
14394;SDS011;7282;49.204;10.652;2023-05-17T02:50:09;5.43;;;2.33;;
14394;SDS011;7282;49.204;10.652;2023-05-17T02:52:35;8.27;;;2.30;;
14394;SDS011;7282;49.204;10.652;2023-05-17T02:55:02;3.33;;;2.20;;
14394;SDS011;7282;49.204;10.652;2023-05-17T02:57:29;3.37;;;2.07;;
14394;SDS011;7282;49.204;10.652;2023-05-17T02:59:56;3.93;;;2.20;;
14394;SDS011;7282;49.204;10.652;2023-05-17T03:02:22;3.53;;;2.00;;
14394;SDS011;7282;49.204;10.652;2023-05-17T03:04:49;3.50;;;2.17;;
14394;SDS011;7282;49.204;10.652;2023-05-17T03:07:16;2.80;;;2.00;;
14394;SDS011;7282;49.204;10.652;2023-05-17T03:09:43;5.33;;;2.37;;
14394;SDS011;7282;49.204;10.652;2023-05-17T03:12:09;3.20;;;1.90;;
14394;SDS011;7282;49.204;10.652;2023-05-17T03:14:36;4.77;;;2.37;;
14394;SDS011;7282;49.204;10.652;2023-05-17T03:17:03;4.30;;;2.40;;
14394;SDS011;7282;49.204;10.652;2023-05-17T03:19:29;2.60;;;2.07;;
14394;SDS011;7282;49.204;10.652;2023-05-17T03:21:56;5.27;;;2.20;;
14394;SDS011;7282;49.204;10.652;2023-05-17T03:24:23;2.70;;;2.10;;
14394;SDS011;7282;49.204;10.652;2023-05-17T03:26:49;3.13;;;2.00;;
14394;SDS011;7282;49.204;10.652;2023-05-17T03:29:16;5.73;;;2.60;;
14394;SDS011;7282;49.204;10.652;2023-05-17T03:31:43;3.30;;;2.37;;
14394;SDS011;7282;49.204;10.652;2023-05-17T03:34:09;3.60;;;2.50;;
14394;SDS011;7282;49.204;10.652;2023-05-17T03:36:37;6.60;;;2.53;;
14394;SDS011;7282;49.204;10.652;2023-05-17T03:39:04;3.87;;;2.20;;
14394;SDS011;7282;49.204;10.652;2023-05-17T03:41:31;3.83;;;2.30;;
14394;SDS011;7282;49.204;10.652;2023-05-17T03:43:57;5.20;;;2.30;;
14394;SDS011;7282;49.204;10.652;2023-05-17T03:46:24;4.47;;;2.73;;
14394;SDS011;7282;49.204;10.652;2023-05-17T03:48:51;4.93;;;2.87;;
14394;SDS011;7282;49.204;10.652;2023-05-17T03:51:17;4.03;;;2.80;;
14394;SDS011;7282;49.204;10.652;2023-05-17T03:53:44;5.57;;;2.73;;
14394;SDS011;7282;49.204;10.652;2023-05-17T03:56:11;4.43;;;2.33;;
14394;SDS011;7282;49.204;10.652;2023-05-17T03:58:37;4.53;;;2.57;;
14394;SDS011;7282;49.204;10.652;2023-05-17T04:01:04;4.60;;;2.40;;
14394;SDS011;7282;49.204;10.652;2023-05-17T04:03:31;6.57;;;2.33;;
14394;SDS011;7282;49.204;10.652;2023-05-17T04:06:07;5.87;;;2.63;;
14394;SDS011;7282;49.204;10.652;2023-05-17T04:08:36;2.40;;;2.20;;
14394;SDS011;7282;49.204;10.652;2023-05-17T04:11:00;5.63;;;2.60;;
14394;SDS011;7282;49.204;10.652;2023-05-17T04:13:29;4.97;;;2.40;;
14394;SDS011;7282;49.204;10.652;2023-05-17T04:15:55;6.97;;;2.80;;
14394;SDS011;7282;49.204;10.652;2023-05-17T04:18:22;4.97;;;2.60;;
14394;SDS011;7282;49.204;10.652;2023-05-17T04:20:49;5.30;;;3.00;;
14394;SDS011;7282;49.204;10.652;2023-05-17T04:23:15;5.87;;;2.70;;
14394;SDS011;7282;49.204;10.652;2023-05-17T04:25:42;7.07;;;3.17;;
14394;SDS011;7282;49.204;10.652;2023-05-17T04:28:09;5.17;;;2.73;;
14394;SDS011;7282;49.204;10.652;2023-05-17T04:30:36;6.20;;;2.77;;
14394;SDS011;7282;49.204;10.652;2023-05-17T04:33:02;3.83;;;2.60;;
14394;SDS011;7282;49.204;10.652;2023-05-17T04:35:29;5.60;;;2.93;;
14394;SDS011;7282;49.204;10.652;2023-05-17T04:37:56;4.77;;;2.67;;
14394;SDS011;7282;49.204;10.652;2023-05-17T04:40:22;6.60;;;2.90;;
14394;SDS011;7282;49.204;10.652;2023-05-17T04:42:49;4.33;;;2.50;;
14394;SDS011;7282;49.204;10.652;2023-05-17T04:45:17;5.20;;;2.90;;
14394;SDS011;7282;49.204;10.652;2023-05-17T04:47:43;4.03;;;2.60;;
14394;SDS011;7282;49.204;10.652;2023-05-17T04:50:10;4.10;;;2.43;;
14394;SDS011;7282;49.204;10.652;2023-05-17T04:52:37;11.27;;;3.20;;
14394;SDS011;7282;49.204;10.652;2023-05-17T04:55:04;5.77;;;2.90;;
14394;SDS011;7282;49.204;10.652;2023-05-17T04:57:35;5.23;;;2.80;;
14394;SDS011;7282;49.204;10.652;2023-05-17T05:00:05;3.93;;;2.40;;
14394;SDS011;7282;49.204;10.652;2023-05-17T05:02:30;4.77;;;2.50;;
14394;SDS011;7282;49.204;10.652;2023-05-17T05:04:57;3.93;;;2.20;;
14394;SDS011;7282;49.204;10.652;2023-05-17T05:07:24;6.17;;;2.93;;
14394;SDS011;7282;49.204;10.652;2023-05-17T05:09:50;5.63;;;3.07;;
14394;SDS011;7282;49.204;10.652;2023-05-17T05:12:17;10.23;;;3.20;;
14394;SDS011;7282;49.204;10.652;2023-05-17T05:14:44;5.50;;;2.77;;
14394;SDS011;7282;49.204;10.652;2023-05-17T05:17:10;4.47;;;2.87;;
14394;SDS011;7282;49.204;10.652;2023-05-17T05:19:37;3.97;;;2.47;;
14394;SDS011;7282;49.204;10.652;2023-05-17T05:22:04;4.23;;;2.57;;
14394;SDS011;7282;49.204;10.652;2023-05-17T05:24:30;4.87;;;3.33;;
14394;SDS011;7282;49.204;10.652;2023-05-17T05:26:57;9.50;;;3.80;;
14394;SDS011;7282;49.204;10.652;2023-05-17T05:29:24;5.93;;;2.70;;
14394;SDS011;7282;49.204;10.652;2023-05-17T05:31:51;4.63;;;2.77;;
14394;SDS011;7282;49.204;10.652;2023-05-17T05:34:17;3.93;;;2.80;;
14394;SDS011;7282;49.204;10.652;2023-05-17T05:36:44;5.57;;;2.77;;
14394;SDS011;7282;49.204;10.652;2023-05-17T05:39:11;8.67;;;2.90;;
14394;SDS011;7282;49.204;10.652;2023-05-17T05:41:37;6.60;;;3.40;;
14394;SDS011;7282;49.204;10.652;2023-05-17T05:44:04;4.80;;;3.03;;
14394;SDS011;7282;49.204;10.652;2023-05-17T05:46:31;6.97;;;3.10;;
14394;SDS011;7282;49.204;10.652;2023-05-17T05:48:57;4.63;;;3.07;;
14394;SDS011;7282;49.204;10.652;2023-05-17T05:51:24;7.97;;;3.00;;
14394;SDS011;7282;49.204;10.652;2023-05-17T05:53:51;5.03;;;3.50;;
14394;SDS011;7282;49.204;10.652;2023-05-17T05:56:17;4.07;;;2.80;;
14394;SDS011;7282;49.204;10.652;2023-05-17T05:58:44;5.93;;;3.10;;
14394;SDS011;7282;49.204;10.652;2023-05-17T06:01:11;6.70;;;3.60;;
14394;SDS011;7282;49.204;10.652;2023-05-17T06:03:37;7.33;;;3.83;;
14394;SDS011;7282;49.204;10.652;2023-05-17T06:06:04;4.70;;;3.00;;
14394;SDS011;7282;49.204;10.652;2023-05-17T06:08:31;5.83;;;3.90;;
14394;SDS011;7282;49.204;10.652;2023-05-17T06:10:58;8.73;;;3.50;;
14394;SDS011;7282;49.204;10.652;2023-05-17T06:16:18;8.17;;;4.13;;
14394;SDS011;7282;49.204;10.652;2023-05-17T06:18:45;3.97;;;2.93;;
14394;SDS011;7282;49.204;10.652;2023-05-17T06:21:12;7.27;;;3.33;;
14394;SDS011;7282;49.204;10.652;2023-05-17T06:23:40;5.27;;;2.97;;
14394;SDS011;7282;49.204;10.652;2023-05-17T06:26:07;6.50;;;3.43;;
14394;SDS011;7282;49.204;10.652;2023-05-17T06:28:36;5.57;;;3.30;;
14394;SDS011;7282;49.204;10.652;2023-05-17T06:31:02;5.27;;;3.33;;
14394;SDS011;7282;49.204;10.652;2023-05-17T06:33:32;6.20;;;3.30;;
14394;SDS011;7282;49.204;10.652;2023-05-17T06:35:59;7.77;;;3.60;;
14394;SDS011;7282;49.204;10.652;2023-05-17T06:38:25;5.67;;;3.70;;
14394;SDS011;7282;49.204;10.652;2023-05-17T06:40:52;5.77;;;3.13;;
14394;SDS011;7282;49.204;10.652;2023-05-17T06:43:19;5.60;;;3.23;;
14394;SDS011;7282;49.204;10.652;2023-05-17T06:45:46;7.23;;;3.83;;
14394;SDS011;7282;49.204;10.652;2023-05-17T06:48:13;7.80;;;3.70;;
14394;SDS011;7282;49.204;10.652;2023-05-17T06:50:40;4.13;;;3.27;;
14394;SDS011;7282;49.204;10.652;2023-05-17T06:53:07;6.70;;;3.50;;
14394;SDS011;7282;49.204;10.652;2023-05-17T06:55:34;7.87;;;3.73;;
14394;SDS011;7282;49.204;10.652;2023-05-17T06:58:00;8.37;;;3.73;;
14394;SDS011;7282;49.204;10.652;2023-05-17T07:00:27;8.37;;;4.13;;
14394;SDS011;7282;49.204;10.652;2023-05-17T07:02:54;6.00;;;3.57;;
14394;SDS011;7282;49.204;10.652;2023-05-17T07:05:21;7.50;;;3.80;;
14394;SDS011;7282;49.204;10.652;2023-05-17T07:07:49;7.20;;;3.73;;
14394;SDS011;7282;49.204;10.652;2023-05-17T07:10:15;5.93;;;3.73;;
14394;SDS011;7282;49.204;10.652;2023-05-17T07:12:44;8.87;;;4.17;;
14394;SDS011;7282;49.204;10.652;2023-05-17T07:15:11;6.13;;;3.67;;
14394;SDS011;7282;49.204;10.652;2023-05-17T07:17:37;7.47;;;4.10;;
14394;SDS011;7282;49.204;10.652;2023-05-17T07:20:04;6.97;;;4.00;;
14394;SDS011;7282;49.204;10.652;2023-05-17T07:22:31;6.73;;;4.00;;
14394;SDS011;7282;49.204;10.652;2023-05-17T07:24:58;7.27;;;3.93;;
14394;SDS011;7282;49.204;10.652;2023-05-17T07:27:24;7.77;;;4.13;;
14394;SDS011;7282;49.204;10.652;2023-05-17T07:29:51;6.03;;;3.83;;
14394;SDS011;7282;49.204;10.652;2023-05-17T07:32:18;6.20;;;3.70;;
14394;SDS011;7282;49.204;10.652;2023-05-17T07:34:44;9.70;;;3.93;;
14394;SDS011;7282;49.204;10.652;2023-05-17T07:37:11;10.93;;;4.10;;
14394;SDS011;7282;49.204;10.652;2023-05-17T07:39:38;6.33;;;4.03;;
14394;SDS011;7282;49.204;10.652;2023-05-17T07:42:05;9.03;;;4.17;;
14394;SDS011;7282;49.204;10.652;2023-05-17T07:44:31;6.30;;;4.10;;
14394;SDS011;7282;49.204;10.652;2023-05-17T07:46:58;7.83;;;4.53;;
14394;SDS011;7282;49.204;10.652;2023-05-17T07:49:25;7.00;;;4.20;;
14394;SDS011;7282;49.204;10.652;2023-05-17T07:51:52;7.13;;;4.00;;
14394;SDS011;7282;49.204;10.652;2023-05-17T07:54:24;8.20;;;4.20;;
14394;SDS011;7282;49.204;10.652;2023-05-17T07:56:52;7.43;;;4.73;;
14394;SDS011;7282;49.204;10.652;2023-05-17T07:59:20;6.73;;;4.10;;
14394;SDS011;7282;49.204;10.652;2023-05-17T08:01:47;6.73;;;3.80;;
14394;SDS011;7282;49.204;10.652;2023-05-17T08:04:16;7.83;;;4.20;;
14394;SDS011;7282;49.204;10.652;2023-05-17T08:06:44;8.37;;;4.33;;
14394;SDS011;7282;49.204;10.652;2023-05-17T08:09:15;7.60;;;4.10;;
14394;SDS011;7282;49.204;10.652;2023-05-17T08:11:41;6.17;;;4.17;;
14394;SDS011;7282;49.204;10.652;2023-05-17T08:16:56;6.60;;;4.10;;
14394;SDS011;7282;49.204;10.652;2023-05-17T08:19:22;5.53;;;4.13;;
14394;SDS011;7282;49.204;10.652;2023-05-17T08:21:49;7.83;;;3.87;;
14394;SDS011;7282;49.204;10.652;2023-05-17T08:24:16;6.10;;;4.00;;
14394;SDS011;7282;49.204;10.652;2023-05-17T08:26:43;5.37;;;3.63;;
14394;SDS011;7282;49.204;10.652;2023-05-17T08:29:12;4.80;;;4.00;;
14394;SDS011;7282;49.204;10.652;2023-05-17T08:31:39;6.67;;;3.80;;
14394;SDS011;7282;49.204;10.652;2023-05-17T08:34:06;5.17;;;3.67;;
14394;SDS011;7282;49.204;10.652;2023-05-17T08:36:32;6.77;;;3.80;;
14394;SDS011;7282;49.204;10.652;2023-05-17T08:38:59;7.30;;;3.90;;
14394;SDS011;7282;49.204;10.652;2023-05-17T08:41:26;6.17;;;3.97;;
14394;SDS011;7282;49.204;10.652;2023-05-17T08:43:53;5.50;;;3.63;;
14394;SDS011;7282;49.204;10.652;2023-05-17T08:46:21;7.07;;;3.60;;
14394;SDS011;7282;49.204;10.652;2023-05-17T08:48:48;4.70;;;3.70;;
14394;SDS011;7282;49.204;10.652;2023-05-17T08:51:17;4.03;;;3.30;;
14394;SDS011;7282;49.204;10.652;2023-05-17T08:53:44;6.37;;;3.70;;
14394;SDS011;7282;49.204;10.652;2023-05-17T08:56:13;5.90;;;3.73;;
14394;SDS011;7282;49.204;10.652;2023-05-17T08:58:42;7.17;;;3.70;;
14394;SDS011;7282;49.204;10.652;2023-05-17T09:01:11;6.80;;;3.63;;
14394;SDS011;7282;49.204;10.652;2023-05-17T09:03:38;5.37;;;3.57;;
14394;SDS011;7282;49.204;10.652;2023-05-17T09:06:06;6.13;;;3.50;;
14394;SDS011;7282;49.204;10.652;2023-05-17T09:08:35;6.53;;;3.80;;
14394;SDS011;7282;49.204;10.652;2023-05-17T09:11:02;4.20;;;3.40;;
14394;SDS011;7282;49.204;10.652;2023-05-17T09:13:29;7.37;;;4.13;;
14394;SDS011;7282;49.204;10.652;2023-05-17T09:15:55;6.30;;;3.53;;
14394;SDS011;7282;49.204;10.652;2023-05-17T09:18:28;4.57;;;3.10;;
14394;SDS011;7282;49.204;10.652;2023-05-17T09:20:56;5.83;;;3.57;;
14394;SDS011;7282;49.204;10.652;2023-05-17T09:23:24;5.67;;;3.27;;
14394;SDS011;7282;49.204;10.652;2023-05-17T09:25:52;5.20;;;3.40;;
14394;SDS011;7282;49.204;10.652;2023-05-17T09:28:19;3.53;;;3.07;;
14394;SDS011;7282;49.204;10.652;2023-05-17T09:30:47;5.93;;;3.47;;
14394;SDS011;7282;49.204;10.652;2023-05-17T09:33:13;5.67;;;3.67;;
14394;SDS011;7282;49.204;10.652;2023-05-17T09:35:40;6.83;;;4.37;;
14394;SDS011;7282;49.204;10.652;2023-05-17T09:38:09;5.47;;;3.90;;
14394;SDS011;7282;49.204;10.652;2023-05-17T09:40:42;5.93;;;3.60;;
14394;SDS011;7282;49.204;10.652;2023-05-17T09:43:10;4.53;;;3.57;;
14394;SDS011;7282;49.204;10.652;2023-05-17T09:45:33;5.50;;;3.80;;
14394;SDS011;7282;49.204;10.652;2023-05-17T09:48:14;6.30;;;3.97;;
14394;SDS011;7282;49.204;10.652;2023-05-17T09:50:47;7.20;;;4.10;;
14394;SDS011;7282;49.204;10.652;2023-05-17T09:53:48;6.27;;;3.43;;
14394;SDS011;7282;49.204;10.652;2023-05-17T09:55:50;5.33;;;3.40;;
14394;SDS011;7282;49.204;10.652;2023-05-17T09:58:17;5.43;;;3.67;;
14394;SDS011;7282;49.204;10.652;2023-05-17T10:00:44;5.80;;;4.10;;
14394;SDS011;7282;49.204;10.652;2023-05-17T10:03:13;4.83;;;3.67;;
14394;SDS011;7282;49.204;10.652;2023-05-17T10:05:40;4.80;;;3.50;;
14394;SDS011;7282;49.204;10.652;2023-05-17T10:08:08;4.80;;;3.17;;
14394;SDS011;7282;49.204;10.652;2023-05-17T10:10:36;4.80;;;3.50;;
14394;SDS011;7282;49.204;10.652;2023-05-17T10:13:03;5.40;;;3.30;;
14394;SDS011;7282;49.204;10.652;2023-05-17T10:15:31;5.83;;;3.77;;
14394;SDS011;7282;49.204;10.652;2023-05-17T10:17:58;4.77;;;3.53;;
14394;SDS011;7282;49.204;10.652;2023-05-17T10:20:25;7.43;;;3.90;;
14394;SDS011;7282;49.204;10.652;2023-05-17T10:22:54;3.80;;;3.20;;
14394;SDS011;7282;49.204;10.652;2023-05-17T10:25:21;5.83;;;3.30;;
14394;SDS011;7282;49.204;10.652;2023-05-17T10:27:52;5.80;;;3.60;;
14394;SDS011;7282;49.204;10.652;2023-05-17T10:30:16;5.90;;;3.37;;
14394;SDS011;7282;49.204;10.652;2023-05-17T10:32:44;4.83;;;3.50;;
14394;SDS011;7282;49.204;10.652;2023-05-17T10:35:11;5.57;;;3.30;;
14394;SDS011;7282;49.204;10.652;2023-05-17T10:37:40;5.43;;;4.17;;
14394;SDS011;7282;49.204;10.652;2023-05-17T10:40:07;5.23;;;3.73;;
14394;SDS011;7282;49.204;10.652;2023-05-17T10:42:40;5.23;;;3.43;;
14394;SDS011;7282;49.204;10.652;2023-05-17T10:45:07;5.37;;;3.20;;
14394;SDS011;7282;49.204;10.652;2023-05-17T10:47:38;3.73;;;3.00;;
14394;SDS011;7282;49.204;10.652;2023-05-17T10:50:09;6.37;;;3.43;;
14394;SDS011;7282;49.204;10.652;2023-05-17T10:52:37;5.33;;;2.97;;
14394;SDS011;7282;49.204;10.652;2023-05-17T10:55:04;5.27;;;3.60;;
14394;SDS011;7282;49.204;10.652;2023-05-17T10:57:34;4.30;;;3.50;;
14394;SDS011;7282;49.204;10.652;2023-05-17T11:00:03;6.83;;;3.77;;
14394;SDS011;7282;49.204;10.652;2023-05-17T11:02:32;6.27;;;3.73;;
14394;SDS011;7282;49.204;10.652;2023-05-17T11:04:59;4.93;;;3.87;;
14394;SDS011;7282;49.204;10.652;2023-05-17T11:07:27;7.57;;;3.57;;
14394;SDS011;7282;49.204;10.652;2023-05-17T11:12:45;5.43;;;3.40;;
14394;SDS011;7282;49.204;10.652;2023-05-17T11:15:15;5.17;;;3.83;;
14394;SDS011;7282;49.204;10.652;2023-05-17T11:23:00;6.03;;;3.80;;
14394;SDS011;7282;49.204;10.652;2023-05-17T11:25:26;6.17;;;3.70;;
14394;SDS011;7282;49.204;10.652;2023-05-17T11:27:52;4.60;;;3.50;;
14394;SDS011;7282;49.204;10.652;2023-05-17T11:30:22;5.67;;;3.40;;
14394;SDS011;7282;49.204;10.652;2023-05-17T11:32:52;5.33;;;3.57;;
14394;SDS011;7282;49.204;10.652;2023-05-17T11:35:22;7.60;;;4.20;;
14394;SDS011;7282;49.204;10.652;2023-05-17T11:37:50;6.43;;;3.90;;
14394;SDS011;7282;49.204;10.652;2023-05-17T11:40:23;6.77;;;3.87;;
14394;SDS011;7282;49.204;10.652;2023-05-17T11:42:45;6.23;;;3.80;;
14394;SDS011;7282;49.204;10.652;2023-05-17T11:45:14;5.97;;;3.50;;
14394;SDS011;7282;49.204;10.652;2023-05-17T11:47:41;6.53;;;3.67;;
14394;SDS011;7282;49.204;10.652;2023-05-17T11:50:10;5.00;;;3.80;;
14394;SDS011;7282;49.204;10.652;2023-05-17T11:52:38;3.70;;;3.20;;
14394;SDS011;7282;49.204;10.652;2023-05-17T11:55:05;4.77;;;3.40;;
14394;SDS011;7282;49.204;10.652;2023-05-17T11:57:32;7.63;;;3.50;;
14394;SDS011;7282;49.204;10.652;2023-05-17T12:00:00;5.70;;;3.57;;
14394;SDS011;7282;49.204;10.652;2023-05-17T12:02:32;7.60;;;3.70;;
14394;SDS011;7282;49.204;10.652;2023-05-17T12:04:55;5.50;;;3.70;;
14394;SDS011;7282;49.204;10.652;2023-05-17T12:07:22;4.87;;;3.40;;
14394;SDS011;7282;49.204;10.652;2023-05-17T12:09:50;4.53;;;3.43;;
14394;SDS011;7282;49.204;10.652;2023-05-17T12:12:18;5.03;;;3.50;;
14394;SDS011;7282;49.204;10.652;2023-05-17T12:14:46;5.33;;;3.77;;
14394;SDS011;7282;49.204;10.652;2023-05-17T12:17:20;4.27;;;3.40;;
14394;SDS011;7282;49.204;10.652;2023-05-17T12:19:42;6.93;;;3.80;;
14394;SDS011;7282;49.204;10.652;2023-05-17T12:22:10;7.50;;;4.20;;
14394;SDS011;7282;49.204;10.652;2023-05-17T12:24:40;5.70;;;3.93;;
14394;SDS011;7282;49.204;10.652;2023-05-17T12:27:07;3.93;;;3.43;;
14394;SDS011;7282;49.204;10.652;2023-05-17T12:29:34;5.13;;;3.60;;
14394;SDS011;7282;49.204;10.652;2023-05-17T12:32:00;6.70;;;3.33;;
14394;SDS011;7282;49.204;10.652;2023-05-17T12:34:28;6.47;;;3.87;;
14394;SDS011;7282;49.204;10.652;2023-05-17T12:36:55;5.77;;;3.70;;
14394;SDS011;7282;49.204;10.652;2023-05-17T12:39:21;5.87;;;3.87;;
14394;SDS011;7282;49.204;10.652;2023-05-17T12:41:49;4.60;;;3.63;;
14394;SDS011;7282;49.204;10.652;2023-05-17T12:44:16;6.30;;;3.83;;
14394;SDS011;7282;49.204;10.652;2023-05-17T12:46:48;6.63;;;3.57;;
14394;SDS011;7282;49.204;10.652;2023-05-17T12:49:17;4.10;;;3.33;;
14394;SDS011;7282;49.204;10.652;2023-05-17T12:51:44;5.17;;;3.97;;
14394;SDS011;7282;49.204;10.652;2023-05-17T12:54:11;6.60;;;4.10;;
14394;SDS011;7282;49.204;10.652;2023-05-17T12:56:40;5.00;;;3.80;;
14394;SDS011;7282;49.204;10.652;2023-05-17T13:01:39;4.80;;;3.63;;
14394;SDS011;7282;49.204;10.652;2023-05-17T13:04:07;7.13;;;4.00;;
14394;SDS011;7282;49.204;10.652;2023-05-17T13:06:47;6.40;;;3.97;;
14394;SDS011;7282;49.204;10.652;2023-05-17T13:09:14;7.17;;;4.20;;
14394;SDS011;7282;49.204;10.652;2023-05-17T13:11:48;6.50;;;4.47;;
14394;SDS011;7282;49.204;10.652;2023-05-17T13:14:11;6.80;;;3.80;;
14394;SDS011;7282;49.204;10.652;2023-05-17T13:16:38;6.23;;;4.40;;
14394;SDS011;7282;49.204;10.652;2023-05-17T13:19:12;7.70;;;4.30;;
14394;SDS011;7282;49.204;10.652;2023-05-17T13:21:38;7.43;;;4.27;;
14394;SDS011;7282;49.204;10.652;2023-05-17T13:24:07;6.57;;;4.07;;
14394;SDS011;7282;49.204;10.652;2023-05-17T13:26:34;7.10;;;3.97;;
14394;SDS011;7282;49.204;10.652;2023-05-17T13:29:00;4.20;;;3.80;;
14394;SDS011;7282;49.204;10.652;2023-05-17T13:31:27;5.20;;;3.90;;
14394;SDS011;7282;49.204;10.652;2023-05-17T13:33:54;5.57;;;3.87;;
14394;SDS011;7282;49.204;10.652;2023-05-17T13:36:21;5.47;;;4.43;;
14394;SDS011;7282;49.204;10.652;2023-05-17T13:38:47;4.57;;;4.07;;
14394;SDS011;7282;49.204;10.652;2023-05-17T13:41:14;7.30;;;4.17;;
14394;SDS011;7282;49.204;10.652;2023-05-17T13:43:41;8.07;;;4.20;;
14394;SDS011;7282;49.204;10.652;2023-05-17T13:46:08;8.27;;;4.17;;
14394;SDS011;7282;49.204;10.652;2023-05-17T13:48:34;5.40;;;3.93;;
14394;SDS011;7282;49.204;10.652;2023-05-17T13:51:01;6.30;;;4.33;;
14394;SDS011;7282;49.204;10.652;2023-05-17T13:53:28;7.77;;;4.33;;
14394;SDS011;7282;49.204;10.652;2023-05-17T13:55:55;5.00;;;3.83;;
14394;SDS011;7282;49.204;10.652;2023-05-17T13:58:22;6.23;;;4.00;;
14394;SDS011;7282;49.204;10.652;2023-05-17T14:00:49;6.10;;;4.10;;
14394;SDS011;7282;49.204;10.652;2023-05-17T14:03:16;5.37;;;4.20;;
14394;SDS011;7282;49.204;10.652;2023-05-17T14:05:43;7.07;;;4.13;;
14394;SDS011;7282;49.204;10.652;2023-05-17T14:08:12;6.77;;;4.40;;
14394;SDS011;7282;49.204;10.652;2023-05-17T14:10:39;8.07;;;4.93;;
14394;SDS011;7282;49.204;10.652;2023-05-17T14:13:05;10.73;;;5.70;;
14394;SDS011;7282;49.204;10.652;2023-05-17T14:15:32;17.43;;;5.73;;
14394;SDS011;7282;49.204;10.652;2023-05-17T14:18:01;5.40;;;4.53;;
14394;SDS011;7282;49.204;10.652;2023-05-17T14:20:28;5.10;;;4.30;;
14394;SDS011;7282;49.204;10.652;2023-05-17T14:22:55;8.10;;;4.77;;
14394;SDS011;7282;49.204;10.652;2023-05-17T14:25:22;7.97;;;5.13;;
14394;SDS011;7282;49.204;10.652;2023-05-17T14:27:48;7.83;;;4.50;;
14394;SDS011;7282;49.204;10.652;2023-05-17T14:30:15;5.20;;;4.23;;
14394;SDS011;7282;49.204;10.652;2023-05-17T14:32:42;7.70;;;4.53;;
14394;SDS011;7282;49.204;10.652;2023-05-17T14:35:09;5.80;;;4.10;;
14394;SDS011;7282;49.204;10.652;2023-05-17T14:37:35;6.60;;;4.27;;
14394;SDS011;7282;49.204;10.652;2023-05-17T14:40:02;6.90;;;4.73;;
14394;SDS011;7282;49.204;10.652;2023-05-17T14:42:29;7.43;;;4.50;;
14394;SDS011;7282;49.204;10.652;2023-05-17T14:44:56;7.80;;;4.97;;
14394;SDS011;7282;49.204;10.652;2023-05-17T14:47:23;5.90;;;4.10;;
14394;SDS011;7282;49.204;10.652;2023-05-17T14:49:49;8.07;;;4.90;;
14394;SDS011;7282;49.204;10.652;2023-05-17T14:52:16;6.17;;;4.80;;
14394;SDS011;7282;49.204;10.652;2023-05-17T14:54:43;5.73;;;4.40;;
14394;SDS011;7282;49.204;10.652;2023-05-17T14:57:10;7.07;;;4.70;;
14394;SDS011;7282;49.204;10.652;2023-05-17T14:59:37;7.43;;;4.00;;
14394;SDS011;7282;49.204;10.652;2023-05-17T15:02:03;6.67;;;4.10;;
14394;SDS011;7282;49.204;10.652;2023-05-17T15:04:30;7.53;;;4.50;;
14394;SDS011;7282;49.204;10.652;2023-05-17T15:06:57;5.70;;;4.17;;